sensor_id;sensor_type;location;lat;lon;timestamp;temperature;humidity
9450;DHT22;4763;48.370;10.874;2023-01-15T00:01:20;9.90;99.90
9450;DHT22;4763;48.370;10.874;2023-01-15T00:03:47;9.90;99.90
9450;DHT22;4763;48.370;10.874;2023-01-15T00:06:14;9.80;99.90
9450;DHT22;4763;48.370;10.874;2023-01-15T00:08:42;9.80;99.90
9450;DHT22;4763;48.370;10.874;2023-01-15T00:11:09;9.90;99.90
9450;DHT22;4763;48.370;10.874;2023-01-15T00:13:36;9.90;99.90
9450;DHT22;4763;48.370;10.874;2023-01-15T00:16:04;9.90;99.90
9450;DHT22;4763;48.370;10.874;2023-01-15T00:18:32;9.90;99.90
9450;DHT22;4763;48.370;10.874;2023-01-15T00:20:59;10.00;99.90
9450;DHT22;4763;48.370;10.874;2023-01-15T00:23:26;10.00;99.90
9450;DHT22;4763;48.370;10.874;2023-01-15T00:26:12;9.90;99.90
9450;DHT22;4763;48.370;10.874;2023-01-15T00:28:58;9.90;99.90
9450;DHT22;4763;48.370;10.874;2023-01-15T00:31:30;9.80;99.90
9450;DHT22;4763;48.370;10.874;2023-01-15T00:33:59;9.60;99.90
9450;DHT22;4763;48.370;10.874;2023-01-15T00:36:25;9.60;99.90
9450;DHT22;4763;48.370;10.874;2023-01-15T00:38:52;9.50;99.90
9450;DHT22;4763;48.370;10.874;2023-01-15T00:41:22;9.50;99.90
9450;DHT22;4763;48.370;10.874;2023-01-15T00:43:49;9.50;99.90
9450;DHT22;4763;48.370;10.874;2023-01-15T00:46:18;9.60;99.90
9450;DHT22;4763;48.370;10.874;2023-01-15T00:48:44;9.50;99.90
9450;DHT22;4763;48.370;10.874;2023-01-15T00:51:13;9.50;99.90
9450;DHT22;4763;48.370;10.874;2023-01-15T00:53:41;9.50;99.90
9450;DHT22;4763;48.370;10.874;2023-01-15T00:56:08;9.60;99.90
9450;DHT22;4763;48.370;10.874;2023-01-15T00:58:35;9.60;99.90
9450;DHT22;4763;48.370;10.874;2023-01-15T01:01:02;9.50;99.90
9450;DHT22;4763;48.370;10.874;2023-01-15T01:03:28;9.60;99.90
9450;DHT22;4763;48.370;10.874;2023-01-15T01:05:59;9.60;99.90
9450;DHT22;4763;48.370;10.874;2023-01-15T01:08:27;9.60;99.90
9450;DHT22;4763;48.370;10.874;2023-01-15T01:11:01;9.70;99.90
9450;DHT22;4763;48.370;10.874;2023-01-15T01:13:28;9.80;99.90
9450;DHT22;4763;48.370;10.874;2023-01-15T01:15:55;9.70;99.90
9450;DHT22;4763;48.370;10.874;2023-01-15T01:18:22;9.60;99.90
9450;DHT22;4763;48.370;10.874;2023-01-15T01:20:48;9.70;99.90
9450;DHT22;4763;48.370;10.874;2023-01-15T01:23:15;9.60;99.90
9450;DHT22;4763;48.370;10.874;2023-01-15T01:25:43;9.60;99.90
9450;DHT22;4763;48.370;10.874;2023-01-15T01:28:10;9.60;99.90
9450;DHT22;4763;48.370;10.874;2023-01-15T01:30:37;9.50;99.90
9450;DHT22;4763;48.370;10.874;2023-01-15T01:33:04;9.50;99.90
9450;DHT22;4763;48.370;10.874;2023-01-15T01:35:31;9.60;99.90
9450;DHT22;4763;48.370;10.874;2023-01-15T01:37:58;9.60;99.90
9450;DHT22;4763;48.370;10.874;2023-01-15T01:40:25;9.60;99.90
9450;DHT22;4763;48.370;10.874;2023-01-15T01:42:53;9.60;99.90
9450;DHT22;4763;48.370;10.874;2023-01-15T01:45:22;9.60;99.90
9450;DHT22;4763;48.370;10.874;2023-01-15T01:47:50;9.50;99.90
9450;DHT22;4763;48.370;10.874;2023-01-15T01:50:19;9.70;99.90
9450;DHT22;4763;48.370;10.874;2023-01-15T01:52:48;9.70;99.90
9450;DHT22;4763;48.370;10.874;2023-01-15T01:55:19;9.70;99.90
9450;DHT22;4763;48.370;10.874;2023-01-15T01:57:48;9.70;99.90
9450;DHT22;4763;48.370;10.874;2023-01-15T02:00:18;9.60;99.90
9450;DHT22;4763;48.370;10.874;2023-01-15T02:02:46;9.70;99.90
9450;DHT22;4763;48.370;10.874;2023-01-15T02:05:19;9.70;99.90
9450;DHT22;4763;48.370;10.874;2023-01-15T02:07:47;9.70;99.90
9450;DHT22;4763;48.370;10.874;2023-01-15T02:10:14;9.80;99.90
9450;DHT22;4763;48.370;10.874;2023-01-15T02:12:45;9.90;99.90
9450;DHT22;4763;48.370;10.874;2023-01-15T02:15:17;9.90;99.90
9450;DHT22;4763;48.370;10.874;2023-01-15T02:17:51;9.90;99.90
9450;DHT22;4763;48.370;10.874;2023-01-15T02:20:27;10.00;99.90
9450;DHT22;4763;48.370;10.874;2023-01-15T02:23:10;9.90;99.90
9450;DHT22;4763;48.370;10.874;2023-01-15T02:25:55;9.80;99.90
9450;DHT22;4763;48.370;10.874;2023-01-15T02:28:26;9.90;99.90
9450;DHT22;4763;48.370;10.874;2023-01-15T02:30:59;9.90;99.90
9450;DHT22;4763;48.370;10.874;2023-01-15T02:33:30;9.90;99.90
9450;DHT22;4763;48.370;10.874;2023-01-15T02:36:00;9.90;99.90
9450;DHT22;4763;48.370;10.874;2023-01-15T02:38:29;9.80;99.90
9450;DHT22;4763;48.370;10.874;2023-01-15T02:41:01;9.70;99.90
9450;DHT22;4763;48.370;10.874;2023-01-15T02:43:34;9.60;99.90
9450;DHT22;4763;48.370;10.874;2023-01-15T02:46:03;9.60;99.90
9450;DHT22;4763;48.370;10.874;2023-01-15T02:48:32;9.50;99.90
9450;DHT22;4763;48.370;10.874;2023-01-15T02:51:05;9.40;99.90
9450;DHT22;4763;48.370;10.874;2023-01-15T02:53:33;9.40;99.90
9450;DHT22;4763;48.370;10.874;2023-01-15T02:56:04;9.30;99.90
9450;DHT22;4763;48.370;10.874;2023-01-15T02:58:38;9.30;99.90
9450;DHT22;4763;48.370;10.874;2023-01-15T03:01:10;9.20;99.90
9450;DHT22;4763;48.370;10.874;2023-01-15T03:03:41;9.10;99.90
9450;DHT22;4763;48.370;10.874;2023-01-15T03:06:13;9.10;99.90
9450;DHT22;4763;48.370;10.874;2023-01-15T03:08:40;9.10;99.90
9450;DHT22;4763;48.370;10.874;2023-01-15T03:11:09;9.10;99.90
9450;DHT22;4763;48.370;10.874;2023-01-15T03:13:44;9.00;99.90
9450;DHT22;4763;48.370;10.874;2023-01-15T03:16:15;9.10;99.90
9450;DHT22;4763;48.370;10.874;2023-01-15T03:19:11;9.10;99.90
9450;DHT22;4763;48.370;10.874;2023-01-15T03:21:46;9.10;99.90
9450;DHT22;4763;48.370;10.874;2023-01-15T03:24:22;9.10;99.90
9450;DHT22;4763;48.370;10.874;2023-01-15T03:26:51;9.10;99.90
9450;DHT22;4763;48.370;10.874;2023-01-15T03:29:20;9.10;99.90
9450;DHT22;4763;48.370;10.874;2023-01-15T03:31:48;9.10;99.90
9450;DHT22;4763;48.370;10.874;2023-01-15T03:34:15;9.20;99.90
9450;DHT22;4763;48.370;10.874;2023-01-15T03:36:42;9.10;99.90
9450;DHT22;4763;48.370;10.874;2023-01-15T03:39:09;9.10;99.90
9450;DHT22;4763;48.370;10.874;2023-01-15T03:41:47;9.10;99.90
9450;DHT22;4763;48.370;10.874;2023-01-15T03:44:26;9.20;99.90
9450;DHT22;4763;48.370;10.874;2023-01-15T03:47:05;9.20;99.90
9450;DHT22;4763;48.370;10.874;2023-01-15T03:49:41;9.10;99.90
9450;DHT22;4763;48.370;10.874;2023-01-15T03:52:15;9.10;99.90
9450;DHT22;4763;48.370;10.874;2023-01-15T03:54:49;9.10;99.90
9450;DHT22;4763;48.370;10.874;2023-01-15T03:57:25;9.30;99.90
9450;DHT22;4763;48.370;10.874;2023-01-15T03:59:56;9.30;99.90
9450;DHT22;4763;48.370;10.874;2023-01-15T04:02:24;9.30;99.90
9450;DHT22;4763;48.370;10.874;2023-01-15T04:04:52;9.30;99.90
9450;DHT22;4763;48.370;10.874;2023-01-15T04:07:20;9.30;99.90
9450;DHT22;4763;48.370;10.874;2023-01-15T04:09:47;9.50;99.90
9450;DHT22;4763;48.370;10.874;2023-01-15T04:12:14;9.50;99.90
9450;DHT22;4763;48.370;10.874;2023-01-15T04:14:41;9.50;99.90
9450;DHT22;4763;48.370;10.874;2023-01-15T04:17:09;9.40;99.90
9450;DHT22;4763;48.370;10.874;2023-01-15T04:19:36;9.50;99.90
9450;DHT22;4763;48.370;10.874;2023-01-15T04:22:03;9.50;99.90
9450;DHT22;4763;48.370;10.874;2023-01-15T04:24:30;9.50;99.90
9450;DHT22;4763;48.370;10.874;2023-01-15T04:26:57;9.70;99.90
9450;DHT22;4763;48.370;10.874;2023-01-15T04:29:23;9.60;99.90
9450;DHT22;4763;48.370;10.874;2023-01-15T04:31:50;9.70;99.90
9450;DHT22;4763;48.370;10.874;2023-01-15T04:34:23;9.70;99.90
9450;DHT22;4763;48.370;10.874;2023-01-15T04:36:50;9.80;99.90
9450;DHT22;4763;48.370;10.874;2023-01-15T04:39:16;9.90;99.90
9450;DHT22;4763;48.370;10.874;2023-01-15T04:41:43;10.00;99.90
9450;DHT22;4763;48.370;10.874;2023-01-15T04:44:27;10.00;99.90
9450;DHT22;4763;48.370;10.874;2023-01-15T04:46:55;10.20;99.90
9450;DHT22;4763;48.370;10.874;2023-01-15T04:49:26;10.20;99.90
9450;DHT22;4763;48.370;10.874;2023-01-15T04:51:53;10.20;99.90
9450;DHT22;4763;48.370;10.874;2023-01-15T04:54:19;10.30;99.90
9450;DHT22;4763;48.370;10.874;2023-01-15T04:56:49;10.40;99.90
9450;DHT22;4763;48.370;10.874;2023-01-15T04:59:18;10.40;99.90
9450;DHT22;4763;48.370;10.874;2023-01-15T05:01:44;10.40;99.90
9450;DHT22;4763;48.370;10.874;2023-01-15T05:04:11;10.30;99.90
9450;DHT22;4763;48.370;10.874;2023-01-15T05:06:40;10.50;99.90
9450;DHT22;4763;48.370;10.874;2023-01-15T05:09:06;10.60;99.90
9450;DHT22;4763;48.370;10.874;2023-01-15T05:11:34;10.40;99.90
9450;DHT22;4763;48.370;10.874;2023-01-15T05:14:01;10.50;99.90
9450;DHT22;4763;48.370;10.874;2023-01-15T05:16:28;10.60;99.90
9450;DHT22;4763;48.370;10.874;2023-01-15T05:18:57;10.60;99.90
9450;DHT22;4763;48.370;10.874;2023-01-15T05:21:26;10.60;99.90
9450;DHT22;4763;48.370;10.874;2023-01-15T05:23:55;10.60;99.90
9450;DHT22;4763;48.370;10.874;2023-01-15T05:26:23;10.60;99.90
9450;DHT22;4763;48.370;10.874;2023-01-15T05:28:52;10.70;99.90
9450;DHT22;4763;48.370;10.874;2023-01-15T05:31:20;10.80;99.90
9450;DHT22;4763;48.370;10.874;2023-01-15T05:33:47;10.70;99.90
9450;DHT22;4763;48.370;10.874;2023-01-15T05:36:16;10.70;99.90
9450;DHT22;4763;48.370;10.874;2023-01-15T05:38:43;10.70;99.90
9450;DHT22;4763;48.370;10.874;2023-01-15T05:41:12;10.80;99.90
9450;DHT22;4763;48.370;10.874;2023-01-15T05:44:00;10.80;99.90
9450;DHT22;4763;48.370;10.874;2023-01-15T05:46:27;10.90;99.90
9450;DHT22;4763;48.370;10.874;2023-01-15T05:48:58;10.80;99.90
9450;DHT22;4763;48.370;10.874;2023-01-15T05:51:26;10.90;99.90
9450;DHT22;4763;48.370;10.874;2023-01-15T05:53:53;10.90;99.90
9450;DHT22;4763;48.370;10.874;2023-01-15T05:56:21;11.10;99.90
9450;DHT22;4763;48.370;10.874;2023-01-15T05:58:48;11.10;99.90
9450;DHT22;4763;48.370;10.874;2023-01-15T06:01:14;11.10;99.90
9450;DHT22;4763;48.370;10.874;2023-01-15T06:03:41;11.10;99.90
9450;DHT22;4763;48.370;10.874;2023-01-15T06:06:11;11.20;99.90
9450;DHT22;4763;48.370;10.874;2023-01-15T06:08:38;11.20;99.90
9450;DHT22;4763;48.370;10.874;2023-01-15T06:11:05;11.20;99.90
9450;DHT22;4763;48.370;10.874;2023-01-15T06:13:34;11.30;99.90
9450;DHT22;4763;48.370;10.874;2023-01-15T06:16:00;11.20;99.90
9450;DHT22;4763;48.370;10.874;2023-01-15T06:18:27;11.30;99.90
9450;DHT22;4763;48.370;10.874;2023-01-15T06:20:54;11.30;99.90
9450;DHT22;4763;48.370;10.874;2023-01-15T06:23:21;11.20;99.90
9450;DHT22;4763;48.370;10.874;2023-01-15T06:25:47;11.20;99.90
9450;DHT22;4763;48.370;10.874;2023-01-15T06:28:14;11.10;99.90
9450;DHT22;4763;48.370;10.874;2023-01-15T06:30:42;11.20;99.90
9450;DHT22;4763;48.370;10.874;2023-01-15T06:33:09;11.20;99.90
9450;DHT22;4763;48.370;10.874;2023-01-15T06:35:35;11.10;99.90
9450;DHT22;4763;48.370;10.874;2023-01-15T06:38:02;11.10;99.90
9450;DHT22;4763;48.370;10.874;2023-01-15T06:40:29;11.10;99.90
9450;DHT22;4763;48.370;10.874;2023-01-15T06:42:57;11.20;99.90
9450;DHT22;4763;48.370;10.874;2023-01-15T06:45:43;11.20;99.90
9450;DHT22;4763;48.370;10.874;2023-01-15T06:48:27;11.20;99.90
9450;DHT22;4763;48.370;10.874;2023-01-15T06:50:54;11.10;99.90
9450;DHT22;4763;48.370;10.874;2023-01-15T06:53:21;11.00;99.90
9450;DHT22;4763;48.370;10.874;2023-01-15T06:55:48;10.90;99.90
9450;DHT22;4763;48.370;10.874;2023-01-15T06:58:15;11.00;99.90
9450;DHT22;4763;48.370;10.874;2023-01-15T07:00:43;11.00;99.90
9450;DHT22;4763;48.370;10.874;2023-01-15T07:03:18;10.90;99.90
9450;DHT22;4763;48.370;10.874;2023-01-15T07:05:44;10.80;99.90
9450;DHT22;4763;48.370;10.874;2023-01-15T07:08:11;10.80;99.90
9450;DHT22;4763;48.370;10.874;2023-01-15T07:10:38;10.90;99.90
9450;DHT22;4763;48.370;10.874;2023-01-15T07:13:05;10.90;99.90
9450;DHT22;4763;48.370;10.874;2023-01-15T07:15:32;10.90;99.90
9450;DHT22;4763;48.370;10.874;2023-01-15T07:18:00;10.80;99.90
9450;DHT22;4763;48.370;10.874;2023-01-15T07:20:29;10.80;99.90
9450;DHT22;4763;48.370;10.874;2023-01-15T07:22:55;10.80;99.90
9450;DHT22;4763;48.370;10.874;2023-01-15T07:25:22;10.80;99.90
9450;DHT22;4763;48.370;10.874;2023-01-15T07:27:49;10.60;99.90
9450;DHT22;4763;48.370;10.874;2023-01-15T07:30:16;10.70;99.90
9450;DHT22;4763;48.370;10.874;2023-01-15T07:32:43;10.70;99.90
9450;DHT22;4763;48.370;10.874;2023-01-15T07:35:11;10.70;99.90
9450;DHT22;4763;48.370;10.874;2023-01-15T07:37:38;10.70;99.90
9450;DHT22;4763;48.370;10.874;2023-01-15T07:40:05;10.70;99.90
9450;DHT22;4763;48.370;10.874;2023-01-15T07:42:32;10.70;99.90
9450;DHT22;4763;48.370;10.874;2023-01-15T07:45:16;10.60;99.90
9450;DHT22;4763;48.370;10.874;2023-01-15T07:48:12;10.70;99.90
9450;DHT22;4763;48.370;10.874;2023-01-15T07:50:57;10.70;99.90
9450;DHT22;4763;48.370;10.874;2023-01-15T07:53:24;10.80;99.90
9450;DHT22;4763;48.370;10.874;2023-01-15T07:55:51;10.80;99.90
9450;DHT22;4763;48.370;10.874;2023-01-15T07:58:18;10.80;99.90
9450;DHT22;4763;48.370;10.874;2023-01-15T08:00:45;10.80;99.90
9450;DHT22;4763;48.370;10.874;2023-01-15T08:03:12;10.80;99.90
9450;DHT22;4763;48.370;10.874;2023-01-15T08:05:38;10.70;99.90
9450;DHT22;4763;48.370;10.874;2023-01-15T08:08:13;10.80;99.90
9450;DHT22;4763;48.370;10.874;2023-01-15T08:10:40;10.70;99.90
9450;DHT22;4763;48.370;10.874;2023-01-15T08:13:30;10.70;99.90
9450;DHT22;4763;48.370;10.874;2023-01-15T08:16:14;10.80;99.90
9450;DHT22;4763;48.370;10.874;2023-01-15T08:18:41;10.80;99.90
9450;DHT22;4763;48.370;10.874;2023-01-15T08:21:12;10.80;99.90
9450;DHT22;4763;48.370;10.874;2023-01-15T08:23:41;10.90;99.90
9450;DHT22;4763;48.370;10.874;2023-01-15T08:26:10;11.00;99.90
9450;DHT22;4763;48.370;10.874;2023-01-15T08:28:37;10.90;99.90
9450;DHT22;4763;48.370;10.874;2023-01-15T08:31:04;11.00;99.90
9450;DHT22;4763;48.370;10.874;2023-01-15T08:33:34;11.00;99.90
9450;DHT22;4763;48.370;10.874;2023-01-15T08:36:03;11.00;99.90
9450;DHT22;4763;48.370;10.874;2023-01-15T08:38:30;11.10;99.90
9450;DHT22;4763;48.370;10.874;2023-01-15T08:40:58;11.00;99.90
9450;DHT22;4763;48.370;10.874;2023-01-15T08:43:27;11.10;99.90
9450;DHT22;4763;48.370;10.874;2023-01-15T08:45:55;11.10;99.90
9450;DHT22;4763;48.370;10.874;2023-01-15T08:48:23;11.20;99.90
9450;DHT22;4763;48.370;10.874;2023-01-15T08:50:51;11.10;99.90
9450;DHT22;4763;48.370;10.874;2023-01-15T08:53:18;11.10;99.90
9450;DHT22;4763;48.370;10.874;2023-01-15T08:55:45;11.20;99.90
9450;DHT22;4763;48.370;10.874;2023-01-15T08:58:13;11.20;99.90
9450;DHT22;4763;48.370;10.874;2023-01-15T09:00:40;11.20;99.90
9450;DHT22;4763;48.370;10.874;2023-01-15T09:03:07;11.20;99.90
9450;DHT22;4763;48.370;10.874;2023-01-15T09:05:35;11.20;99.90
9450;DHT22;4763;48.370;10.874;2023-01-15T09:08:03;11.10;99.90
9450;DHT22;4763;48.370;10.874;2023-01-15T09:10:30;10.80;99.90
9450;DHT22;4763;48.370;10.874;2023-01-15T09:12:57;10.20;99.90
9450;DHT22;4763;48.370;10.874;2023-01-15T09:15:26;9.40;99.90
9450;DHT22;4763;48.370;10.874;2023-01-15T09:17:54;9.10;99.90
9450;DHT22;4763;48.370;10.874;2023-01-15T09:20:20;8.80;99.90
9450;DHT22;4763;48.370;10.874;2023-01-15T09:22:47;8.40;99.90
9450;DHT22;4763;48.370;10.874;2023-01-15T09:25:14;8.30;99.90
9450;DHT22;4763;48.370;10.874;2023-01-15T09:27:43;8.00;99.90
9450;DHT22;4763;48.370;10.874;2023-01-15T09:30:15;7.80;99.90
9450;DHT22;4763;48.370;10.874;2023-01-15T09:32:44;7.70;99.90
9450;DHT22;4763;48.370;10.874;2023-01-15T09:35:11;7.60;99.90
9450;DHT22;4763;48.370;10.874;2023-01-15T09:37:38;7.50;99.90
9450;DHT22;4763;48.370;10.874;2023-01-15T09:40:06;7.40;99.90
9450;DHT22;4763;48.370;10.874;2023-01-15T09:42:42;7.20;99.90
9450;DHT22;4763;48.370;10.874;2023-01-15T09:45:19;7.20;99.90
9450;DHT22;4763;48.370;10.874;2023-01-15T09:48:07;7.10;99.90
9450;DHT22;4763;48.370;10.874;2023-01-15T09:50:47;6.90;99.90
9450;DHT22;4763;48.370;10.874;2023-01-15T09:53:44;7.00;99.90
9450;DHT22;4763;48.370;10.874;2023-01-15T09:56:20;6.80;99.90
9450;DHT22;4763;48.370;10.874;2023-01-15T09:58:49;6.60;99.90
9450;DHT22;4763;48.370;10.874;2023-01-15T10:01:18;6.60;99.90
9450;DHT22;4763;48.370;10.874;2023-01-15T10:03:51;6.60;99.90
9450;DHT22;4763;48.370;10.874;2023-01-15T10:06:23;6.50;99.90
9450;DHT22;4763;48.370;10.874;2023-01-15T10:08:56;6.40;99.90
9450;DHT22;4763;48.370;10.874;2023-01-15T10:11:30;6.40;99.90
9450;DHT22;4763;48.370;10.874;2023-01-15T10:14:31;6.50;99.90
9450;DHT22;4763;48.370;10.874;2023-01-15T10:17:05;6.50;99.90
9450;DHT22;4763;48.370;10.874;2023-01-15T10:19:37;6.50;99.90
9450;DHT22;4763;48.370;10.874;2023-01-15T10:22:07;6.50;99.90
9450;DHT22;4763;48.370;10.874;2023-01-15T10:24:37;6.40;99.90
9450;DHT22;4763;48.370;10.874;2023-01-15T10:27:10;6.40;99.90
9450;DHT22;4763;48.370;10.874;2023-01-15T10:29:43;6.30;99.90
9450;DHT22;4763;48.370;10.874;2023-01-15T10:32:22;6.30;99.90
9450;DHT22;4763;48.370;10.874;2023-01-15T10:35:15;6.30;99.90
9450;DHT22;4763;48.370;10.874;2023-01-15T10:37:49;6.10;99.90
9450;DHT22;4763;48.370;10.874;2023-01-15T10:40:40;6.20;99.90
9450;DHT22;4763;48.370;10.874;2023-01-15T10:43:14;6.20;99.90
9450;DHT22;4763;48.370;10.874;2023-01-15T10:45:47;6.20;99.90
9450;DHT22;4763;48.370;10.874;2023-01-15T10:48:20;6.20;99.90
9450;DHT22;4763;48.370;10.874;2023-01-15T10:50:51;6.10;99.90
9450;DHT22;4763;48.370;10.874;2023-01-15T10:53:27;6.20;99.90
9450;DHT22;4763;48.370;10.874;2023-01-15T10:56:00;6.20;99.90
9450;DHT22;4763;48.370;10.874;2023-01-15T10:58:34;6.20;99.90
9450;DHT22;4763;48.370;10.874;2023-01-15T11:01:05;6.00;99.90
9450;DHT22;4763;48.370;10.874;2023-01-15T11:03:36;6.00;99.90
9450;DHT22;4763;48.370;10.874;2023-01-15T11:06:10;6.10;99.90
9450;DHT22;4763;48.370;10.874;2023-01-15T11:08:39;5.90;99.90
9450;DHT22;4763;48.370;10.874;2023-01-15T11:11:16;5.90;99.90
9450;DHT22;4763;48.370;10.874;2023-01-15T11:13:51;6.00;99.90
9450;DHT22;4763;48.370;10.874;2023-01-15T11:16:37;6.00;99.90
9450;DHT22;4763;48.370;10.874;2023-01-15T11:19:26;6.00;99.90
9450;DHT22;4763;48.370;10.874;2023-01-15T11:22:11;6.00;99.90
9450;DHT22;4763;48.370;10.874;2023-01-15T11:24:45;6.00;99.90
9450;DHT22;4763;48.370;10.874;2023-01-15T11:27:15;5.90;99.90
9450;DHT22;4763;48.370;10.874;2023-01-15T11:29:44;6.00;99.90
9450;DHT22;4763;48.370;10.874;2023-01-15T11:32:21;6.00;99.90
9450;DHT22;4763;48.370;10.874;2023-01-15T11:34:52;6.10;99.90
9450;DHT22;4763;48.370;10.874;2023-01-15T11:37:21;5.90;99.90
9450;DHT22;4763;48.370;10.874;2023-01-15T11:39:53;5.90;99.90
9450;DHT22;4763;48.370;10.874;2023-01-15T11:42:20;5.90;99.90
9450;DHT22;4763;48.370;10.874;2023-01-15T11:45:21;5.90;99.90
9450;DHT22;4763;48.370;10.874;2023-01-15T11:48:14;6.00;99.90
9450;DHT22;4763;48.370;10.874;2023-01-15T11:51:06;6.00;99.90
9450;DHT22;4763;48.370;10.874;2023-01-15T11:53:40;6.00;99.90
9450;DHT22;4763;48.370;10.874;2023-01-15T11:56:10;6.10;99.90
9450;DHT22;4763;48.370;10.874;2023-01-15T11:58:41;6.00;99.90
9450;DHT22;4763;48.370;10.874;2023-01-15T12:01:11;6.00;99.90
9450;DHT22;4763;48.370;10.874;2023-01-15T12:03:41;6.00;99.90
9450;DHT22;4763;48.370;10.874;2023-01-15T12:06:09;6.00;99.90
9450;DHT22;4763;48.370;10.874;2023-01-15T12:08:45;6.00;99.90
9450;DHT22;4763;48.370;10.874;2023-01-15T12:11:49;6.00;99.90
9450;DHT22;4763;48.370;10.874;2023-01-15T12:17:45;6.10;99.90
9450;DHT22;4763;48.370;10.874;2023-01-15T12:20:23;6.10;99.90
9450;DHT22;4763;48.370;10.874;2023-01-15T12:22:59;6.00;99.90
9450;DHT22;4763;48.370;10.874;2023-01-15T12:25:38;6.00;99.90
9450;DHT22;4763;48.370;10.874;2023-01-15T12:28:13;6.00;99.90
9450;DHT22;4763;48.370;10.874;2023-01-15T12:30:48;5.90;99.90
9450;DHT22;4763;48.370;10.874;2023-01-15T12:33:27;6.00;99.90
9450;DHT22;4763;48.370;10.874;2023-01-15T12:36:01;6.00;99.90
9450;DHT22;4763;48.370;10.874;2023-01-15T12:38:40;6.00;99.90
9450;DHT22;4763;48.370;10.874;2023-01-15T12:41:13;5.90;99.90
9450;DHT22;4763;48.370;10.874;2023-01-15T12:43:42;5.90;99.90
9450;DHT22;4763;48.370;10.874;2023-01-15T12:46:29;5.80;99.90
9450;DHT22;4763;48.370;10.874;2023-01-15T12:49:02;5.60;99.90
9450;DHT22;4763;48.370;10.874;2023-01-15T12:51:34;5.60;99.90
9450;DHT22;4763;48.370;10.874;2023-01-15T12:54:07;5.40;99.90
9450;DHT22;4763;48.370;10.874;2023-01-15T12:56:48;5.40;99.90
9450;DHT22;4763;48.370;10.874;2023-01-15T12:59:21;5.30;99.90
9450;DHT22;4763;48.370;10.874;2023-01-15T13:01:53;5.30;99.90
9450;DHT22;4763;48.370;10.874;2023-01-15T13:04:31;5.20;99.90
9450;DHT22;4763;48.370;10.874;2023-01-15T13:07:02;5.20;99.90
9450;DHT22;4763;48.370;10.874;2023-01-15T13:09:35;5.20;99.90
9450;DHT22;4763;48.370;10.874;2023-01-15T13:12:11;5.30;99.90
9450;DHT22;4763;48.370;10.874;2023-01-15T13:14:38;5.40;99.90
9450;DHT22;4763;48.370;10.874;2023-01-15T13:17:10;5.40;99.90
9450;DHT22;4763;48.370;10.874;2023-01-15T13:19:47;5.30;99.90
9450;DHT22;4763;48.370;10.874;2023-01-15T13:22:21;5.40;99.90
9450;DHT22;4763;48.370;10.874;2023-01-15T13:25:01;5.40;99.90
9450;DHT22;4763;48.370;10.874;2023-01-15T13:27:47;5.30;99.90
9450;DHT22;4763;48.370;10.874;2023-01-15T13:30:37;5.40;99.90
9450;DHT22;4763;48.370;10.874;2023-01-15T13:33:16;5.50;99.90
9450;DHT22;4763;48.370;10.874;2023-01-15T13:35:46;5.40;99.90
9450;DHT22;4763;48.370;10.874;2023-01-15T13:38:16;5.40;99.90
9450;DHT22;4763;48.370;10.874;2023-01-15T13:40:49;5.40;99.90
9450;DHT22;4763;48.370;10.874;2023-01-15T13:43:31;5.40;99.90
9450;DHT22;4763;48.370;10.874;2023-01-15T13:46:01;5.40;99.90
9450;DHT22;4763;48.370;10.874;2023-01-15T13:48:31;5.30;99.90
9450;DHT22;4763;48.370;10.874;2023-01-15T13:51:01;5.30;99.90
9450;DHT22;4763;48.370;10.874;2023-01-15T13:53:30;5.30;99.90
9450;DHT22;4763;48.370;10.874;2023-01-15T13:55:59;4.90;99.90
9450;DHT22;4763;48.370;10.874;2023-01-15T13:58:33;4.70;99.90
9450;DHT22;4763;48.370;10.874;2023-01-15T14:01:03;4.40;99.90
9450;DHT22;4763;48.370;10.874;2023-01-15T14:03:32;4.20;99.90
9450;DHT22;4763;48.370;10.874;2023-01-15T14:06:01;4.00;99.90
9450;DHT22;4763;48.370;10.874;2023-01-15T14:08:36;3.80;99.90
9450;DHT22;4763;48.370;10.874;2023-01-15T14:11:04;3.80;99.90
9450;DHT22;4763;48.370;10.874;2023-01-15T14:16:49;3.90;99.90
9450;DHT22;4763;48.370;10.874;2023-01-15T14:19:28;4.00;99.90
9450;DHT22;4763;48.370;10.874;2023-01-15T14:22:07;3.90;99.90
9450;DHT22;4763;48.370;10.874;2023-01-15T14:24:59;4.00;99.90
9450;DHT22;4763;48.370;10.874;2023-01-15T14:27:40;4.00;99.90
9450;DHT22;4763;48.370;10.874;2023-01-15T14:30:27;4.00;99.90
9450;DHT22;4763;48.370;10.874;2023-01-15T14:33:06;4.00;99.90
9450;DHT22;4763;48.370;10.874;2023-01-15T14:35:36;4.00;99.90
9450;DHT22;4763;48.370;10.874;2023-01-15T14:38:12;4.00;99.90
9450;DHT22;4763;48.370;10.874;2023-01-15T14:40:51;4.10;99.90
9450;DHT22;4763;48.370;10.874;2023-01-15T14:43:20;4.10;99.90
9450;DHT22;4763;48.370;10.874;2023-01-15T14:45:50;4.00;99.90
9450;DHT22;4763;48.370;10.874;2023-01-15T14:48:20;4.00;99.90
9450;DHT22;4763;48.370;10.874;2023-01-15T14:51:07;4.10;99.90
9450;DHT22;4763;48.370;10.874;2023-01-15T14:53:38;4.10;99.90
9450;DHT22;4763;48.370;10.874;2023-01-15T14:56:17;4.10;99.90
9450;DHT22;4763;48.370;10.874;2023-01-15T14:58:48;4.10;99.90
9450;DHT22;4763;48.370;10.874;2023-01-15T15:01:29;4.20;99.90
9450;DHT22;4763;48.370;10.874;2023-01-15T15:04:02;4.20;99.90
9450;DHT22;4763;48.370;10.874;2023-01-15T15:06:32;4.20;99.90
9450;DHT22;4763;48.370;10.874;2023-01-15T15:09:10;4.20;99.90
9450;DHT22;4763;48.370;10.874;2023-01-15T15:11:44;4.30;99.90
9450;DHT22;4763;48.370;10.874;2023-01-15T15:14:30;4.30;99.90
9450;DHT22;4763;48.370;10.874;2023-01-15T15:17:00;4.40;99.90
9450;DHT22;4763;48.370;10.874;2023-01-15T15:19:34;4.40;99.90
9450;DHT22;4763;48.370;10.874;2023-01-15T15:22:06;4.50;99.90
9450;DHT22;4763;48.370;10.874;2023-01-15T15:24:44;4.40;99.90
9450;DHT22;4763;48.370;10.874;2023-01-15T15:27:16;4.40;99.90
9450;DHT22;4763;48.370;10.874;2023-01-15T15:29:44;4.40;99.90
9450;DHT22;4763;48.370;10.874;2023-01-15T15:32:14;4.30;99.90
9450;DHT22;4763;48.370;10.874;2023-01-15T15:34:45;4.30;99.90
9450;DHT22;4763;48.370;10.874;2023-01-15T15:37:16;4.30;99.90
9450;DHT22;4763;48.370;10.874;2023-01-15T15:39:50;4.20;99.90
9450;DHT22;4763;48.370;10.874;2023-01-15T15:42:20;4.10;99.90
9450;DHT22;4763;48.370;10.874;2023-01-15T15:45:14;4.10;99.90
9450;DHT22;4763;48.370;10.874;2023-01-15T15:48:12;4.10;99.90
9450;DHT22;4763;48.370;10.874;2023-01-15T15:50:58;4.10;99.90
9450;DHT22;4763;48.370;10.874;2023-01-15T15:53:26;4.10;99.90
9450;DHT22;4763;48.370;10.874;2023-01-15T15:55:52;4.00;99.90
9450;DHT22;4763;48.370;10.874;2023-01-15T15:58:23;4.00;99.90
9450;DHT22;4763;48.370;10.874;2023-01-15T16:00:52;4.00;99.90
9450;DHT22;4763;48.370;10.874;2023-01-15T16:03:23;4.00;99.90
9450;DHT22;4763;48.370;10.874;2023-01-15T16:06:00;3.90;99.90
9450;DHT22;4763;48.370;10.874;2023-01-15T16:08:30;3.90;99.90
9450;DHT22;4763;48.370;10.874;2023-01-15T16:11:00;3.90;99.90
9450;DHT22;4763;48.370;10.874;2023-01-15T16:13:31;3.90;99.90
9450;DHT22;4763;48.370;10.874;2023-01-15T16:16:00;4.00;99.90
9450;DHT22;4763;48.370;10.874;2023-01-15T16:18:31;3.90;99.90
9450;DHT22;4763;48.370;10.874;2023-01-15T16:21:01;4.00;99.90
9450;DHT22;4763;48.370;10.874;2023-01-15T16:23:32;3.90;99.90
9450;DHT22;4763;48.370;10.874;2023-01-15T16:26:15;4.00;99.90
9450;DHT22;4763;48.370;10.874;2023-01-15T16:28:49;4.00;99.90
9450;DHT22;4763;48.370;10.874;2023-01-15T16:31:18;4.00;99.90
9450;DHT22;4763;48.370;10.874;2023-01-15T16:33:52;4.00;99.90